createdAt,value
2018-05-09T00:00:11.889Z,50.05
2018-05-09T00:02:39.353Z,50.57
2018-05-09T00:05:06.861Z,49.90
2018-05-09T00:07:34.372Z,49.92
2018-05-09T00:10:01.907Z,50.62
2018-05-09T00:12:29.438Z,50.61
2018-05-09T00:14:57.551Z,49.71
2018-05-09T00:17:25.075Z,49.58
2018-05-09T00:19:52.565Z,49.46
2018-05-09T00:22:20.068Z,49.26
2018-05-09T00:24:47.644Z,49.95
2018-05-09T00:27:15.137Z,49.77
2018-05-09T00:29:42.663Z,50.13
2018-05-09T00:32:10.144Z,50.34
2018-05-09T00:34:37.644Z,50.02
2018-05-09T00:37:05.115Z,51.29
2018-05-09T00:39:32.649Z,52.18
2018-05-09T00:42:00.166Z,51.12
2018-05-09T00:44:27.642Z,52.58
2018-05-09T00:53:15.518Z,53.58
2018-05-09T00:55:43.037Z,53.57
2018-05-09T00:58:10.536Z,53.86
2018-05-09T01:00:38.010Z,54.19
2018-05-09T01:03:05.514Z,54.17
2018-05-09T01:05:33.008Z,52.33
2018-05-09T01:08:00.474Z,52.76
2018-05-09T01:10:27.990Z,52.42
2018-05-09T01:12:55.462Z,52.70
2018-05-09T01:15:22.964Z,52.69
2018-05-09T01:17:50.447Z,53.32
2018-05-09T01:20:17.978Z,53.33
2018-05-09T01:22:45.457Z,53.45
2018-05-09T01:25:12.972Z,54.11
2018-05-09T01:27:40.500Z,52.56
2018-05-09T01:30:07.968Z,53.54
2018-05-09T01:32:35.620Z,53.71
2018-05-09T01:35:03.104Z,53.75
2018-05-09T01:37:30.625Z,54.50
2018-05-09T01:39:58.120Z,54.15
2018-05-09T01:42:26.377Z,54.81
2018-05-09T01:48:36.314Z,53.56
2018-05-09T01:51:03.804Z,54.84
2018-05-09T01:53:31.294Z,55.92
2018-05-09T01:55:58.828Z,55.31
2018-05-09T01:58:26.372Z,56.20
2018-05-09T02:00:53.897Z,55.66
2018-05-09T02:03:21.410Z,55.58
2018-05-09T02:05:48.915Z,54.67
2018-05-09T02:08:16.441Z,55.33
2018-05-09T02:10:43.931Z,56.24
2018-05-09T02:23:13.605Z,58.57
2018-05-09T02:25:41.095Z,57.90
2018-05-09T02:28:08.592Z,58.40
2018-05-09T02:30:36.110Z,58.67
2018-05-09T02:33:03.588Z,59.42
2018-05-09T02:35:31.204Z,58.08
2018-05-09T02:37:58.620Z,58.14
2018-05-09T02:40:26.119Z,58.28
2018-05-09T02:42:53.670Z,58.34
2018-05-09T02:45:21.152Z,58.56
2018-05-09T02:47:48.647Z,58.87
2018-05-09T02:50:16.157Z,58.68
2018-05-09T02:52:43.788Z,58.51
2018-05-09T02:55:11.262Z,59.00
2018-05-09T02:57:38.749Z,58.60
2018-05-09T03:00:06.236Z,58.67
2018-05-09T03:02:33.729Z,58.90
2018-05-09T03:05:01.257Z,59.39
2018-05-09T03:07:28.740Z,59.02
2018-05-09T03:09:56.274Z,58.51
2018-05-09T03:12:23.796Z,58.43
2018-05-09T03:14:51.277Z,58.83
2018-05-09T03:17:18.773Z,58.80
2018-05-09T03:19:46.282Z,58.50
2018-05-09T03:22:13.796Z,59.53
2018-05-09T03:24:41.321Z,59.69
2018-05-09T03:27:08.803Z,59.47
2018-05-09T03:29:36.336Z,59.60
2018-05-09T03:32:03.813Z,59.08
2018-05-09T03:34:31.327Z,58.48
2018-05-09T03:36:58.805Z,58.75
2018-05-09T03:39:26.292Z,59.31
2018-05-09T03:41:53.788Z,59.42
2018-05-09T03:44:21.314Z,58.88
2018-05-09T03:46:48.837Z,59.30
2018-05-09T03:49:16.315Z,59.45
2018-05-09T03:51:43.857Z,60.04
2018-05-09T03:54:11.367Z,60.16
2018-05-09T03:56:38.817Z,59.99
2018-05-09T03:59:06.330Z,61.14
2018-05-09T04:01:45.748Z,60.46
2018-05-09T04:04:24.999Z,60.73
2018-05-09T04:07:04.176Z,60.79
2018-05-09T04:09:43.733Z,59.96
2018-05-09T04:12:11.263Z,60.37
2018-05-09T04:14:38.761Z,60.25
2018-05-09T04:17:06.278Z,60.40
2018-05-09T04:19:33.803Z,60.79
2018-05-09T04:22:01.290Z,60.86
2018-05-09T04:24:28.804Z,60.81
2018-05-09T04:26:56.308Z,61.11
2018-05-09T04:29:23.982Z,61.26
2018-05-09T04:31:51.460Z,61.38
2018-05-09T04:34:18.983Z,60.44
2018-05-09T04:36:46.482Z,61.46
2018-05-09T04:39:13.992Z,61.26
2018-05-09T04:41:41.517Z,60.83
2018-05-09T04:44:08.989Z,61.83
2018-05-09T04:46:36.517Z,60.08
2018-05-09T04:49:04.002Z,60.60
2018-05-09T04:51:31.518Z,60.97
2018-05-09T04:53:59.042Z,61.00
2018-05-09T04:56:26.564Z,61.01
2018-05-09T04:58:54.112Z,61.28
2018-05-09T05:01:21.640Z,60.74
2018-05-09T05:03:49.140Z,60.35
2018-05-09T05:06:16.637Z,60.23
2018-05-09T05:08:44.165Z,59.98
2018-05-09T05:11:11.679Z,59.86
2018-05-09T05:13:39.173Z,59.06
2018-05-09T05:16:06.722Z,60.04
2018-05-09T05:18:34.210Z,59.75
2018-05-09T05:21:01.701Z,59.81
2018-05-09T05:23:29.205Z,60.63
2018-05-09T05:25:56.727Z,61.38
2018-05-09T05:28:24.208Z,60.19
2018-05-09T05:30:51.774Z,60.99
2018-05-09T05:33:19.539Z,61.04
2018-05-09T05:35:47.121Z,60.62
2018-05-09T05:38:14.605Z,61.49
2018-05-09T05:40:42.529Z,60.35
2018-05-09T05:43:10.278Z,60.36
2018-05-09T05:45:38.156Z,59.81
2018-05-09T05:48:07.284Z,59.55
2018-05-09T05:50:34.771Z,60.77
2018-05-09T05:53:02.267Z,60.87
2018-05-09T05:55:30.436Z,61.42
2018-05-09T05:57:57.956Z,61.00
2018-05-09T06:08:59.155Z,61.56
2018-05-09T06:11:26.632Z,61.94
2018-05-09T06:13:54.148Z,60.95
2018-05-09T06:16:21.633Z,60.59
2018-05-09T06:18:49.223Z,59.73
2018-05-09T06:21:16.739Z,59.69
2018-05-09T06:23:44.219Z,59.63
2018-05-09T06:26:11.745Z,58.77
2018-05-09T06:28:39.276Z,59.28
2018-05-09T06:31:06.796Z,60.53
2018-05-09T06:33:34.322Z,62.56
2018-05-09T06:36:01.820Z,60.76
2018-05-09T06:38:29.386Z,60.51
2018-05-09T06:40:56.911Z,61.14
2018-05-09T06:43:24.442Z,59.39
2018-05-09T06:45:51.934Z,59.26
2018-05-09T06:48:19.461Z,60.59
2018-05-09T06:50:46.942Z,60.00
2018-05-09T06:53:14.437Z,60.81
2018-05-09T06:55:41.988Z,58.75
2018-05-09T07:20:56.387Z,58.24
2018-05-09T07:23:23.868Z,58.05
2018-05-09T07:25:51.389Z,59.07
2018-05-09T07:28:18.931Z,59.86
2018-05-09T07:30:46.430Z,59.75
2018-05-09T07:33:13.944Z,58.39
2018-05-09T07:35:41.459Z,60.22
2018-05-09T07:38:08.943Z,57.61
2018-05-09T07:40:36.464Z,58.08
2018-05-09T07:43:03.968Z,59.65
2018-05-09T07:45:31.465Z,58.47
2018-05-09T07:47:58.979Z,57.79
2018-05-09T07:50:26.535Z,55.67
2018-05-09T07:52:54.027Z,55.92
2018-05-09T07:55:21.614Z,54.60
2018-05-09T07:57:49.105Z,56.05
2018-05-09T08:00:16.656Z,55.81
2018-05-09T08:02:44.150Z,55.06
2018-05-09T08:05:11.677Z,57.25
2018-05-09T08:07:39.202Z,57.15
2018-05-09T08:10:06.707Z,57.04
2018-05-09T08:12:34.235Z,54.04
2018-05-09T08:15:01.738Z,54.04
2018-05-09T08:17:29.249Z,55.28
2018-05-09T08:19:56.816Z,54.98
2018-05-09T08:22:24.299Z,54.87
2018-05-09T08:24:51.778Z,53.70
2018-05-09T08:27:19.322Z,55.22
2018-05-09T08:29:46.829Z,53.51
2018-05-09T08:32:14.342Z,53.73
2018-05-09T08:34:41.857Z,54.24
2018-05-09T08:37:09.365Z,52.66
2018-05-09T08:39:36.900Z,52.51
2018-05-09T08:42:04.394Z,51.11
2018-05-09T08:44:31.919Z,50.74
2018-05-09T08:46:59.458Z,50.55
2018-05-09T08:49:27.025Z,50.99
2018-05-09T08:51:54.504Z,51.34
2018-05-09T08:54:22.147Z,51.34
2018-05-09T08:56:49.641Z,51.70
2018-05-09T08:59:17.179Z,50.15
2018-05-09T09:01:44.688Z,49.46
2018-05-09T09:04:12.314Z,52.00
2018-05-09T09:06:39.783Z,51.89
2018-05-09T09:09:07.323Z,54.12
2018-05-09T09:11:34.848Z,51.69
2018-05-09T09:14:02.385Z,49.07
2018-05-09T09:16:29.864Z,48.47
2018-05-09T09:18:57.530Z,50.90
2018-05-09T09:21:25.090Z,52.30
2018-05-09T09:23:52.656Z,49.27
2018-05-09T09:26:20.162Z,50.72
2018-05-09T09:28:47.680Z,47.95
2018-05-09T09:31:15.183Z,51.50
2018-05-09T09:33:42.720Z,48.16
2018-05-09T09:36:10.208Z,47.37
2018-05-09T09:38:37.809Z,49.16
2018-05-09T09:41:05.358Z,51.88
2018-05-09T09:43:32.861Z,50.44
2018-05-09T09:46:00.395Z,49.48
2018-05-09T09:48:27.893Z,48.71
2018-05-09T09:50:55.425Z,47.58
2018-05-09T09:53:22.959Z,46.62
2018-05-09T09:55:50.654Z,47.57
2018-05-09T09:58:18.209Z,46.09
2018-05-09T10:00:45.892Z,45.41
2018-05-09T10:03:13.410Z,47.64
2018-05-09T10:05:40.930Z,47.42
2018-05-09T10:08:08.543Z,44.99
2018-05-09T10:10:35.964Z,46.61
2018-05-09T10:13:03.562Z,47.20
2018-05-09T10:15:31.129Z,44.15
2018-05-09T10:17:58.618Z,42.49
2018-05-09T10:20:26.239Z,43.52
2018-05-09T10:22:53.722Z,45.59
2018-05-09T10:25:21.223Z,44.67
2018-05-09T10:27:48.780Z,46.68
2018-05-09T10:30:16.270Z,43.90
2018-05-09T10:32:43.797Z,42.45
2018-05-09T10:35:11.292Z,44.73
2018-05-09T10:37:38.887Z,45.65
2018-05-09T10:40:06.411Z,46.13
2018-05-09T10:42:33.938Z,44.25
2018-05-09T10:45:01.448Z,43.66
2018-05-09T10:47:29.017Z,42.93
2018-05-09T10:49:56.539Z,43.81
2018-05-09T10:52:24.035Z,43.48
2018-05-09T10:54:51.594Z,43.78
2018-05-09T10:57:19.222Z,46.14
2018-05-09T10:59:46.692Z,44.62
2018-05-09T11:02:14.178Z,42.32
2018-05-09T11:04:41.783Z,43.64
2018-05-09T11:07:09.320Z,42.93
2018-05-09T11:09:36.807Z,44.20
2018-05-09T11:12:04.309Z,46.12
2018-05-09T11:14:31.797Z,45.90
2018-05-09T11:16:59.323Z,45.38
2018-05-09T11:19:26.813Z,44.68
2018-05-09T11:21:54.346Z,42.45
2018-05-09T11:24:21.884Z,44.09
2018-05-09T11:26:49.335Z,43.57
2018-05-09T11:29:16.858Z,42.99
2018-05-09T11:31:44.366Z,42.01
2018-05-09T11:34:11.881Z,43.91
2018-05-09T11:36:39.393Z,42.70
2018-05-09T11:39:06.887Z,40.81
2018-05-09T11:41:34.396Z,42.35
2018-05-09T11:44:01.939Z,40.49
2018-05-09T11:46:29.469Z,40.49
2018-05-09T11:48:57.005Z,39.96
2018-05-09T11:51:24.492Z,39.17
2018-05-09T11:53:52.019Z,40.13
2018-05-09T11:56:19.529Z,41.20
2018-05-09T11:58:47.058Z,39.37
2018-05-09T12:01:14.607Z,40.69
2018-05-09T12:03:42.147Z,40.66
2018-05-09T12:06:09.751Z,41.92
2018-05-09T12:08:37.770Z,38.96
2018-05-09T12:11:05.256Z,41.21
2018-05-09T12:13:32.770Z,40.49
2018-05-09T12:16:00.355Z,41.11
2018-05-09T12:18:27.893Z,40.57
2018-05-09T12:20:55.378Z,42.81
2018-05-09T12:23:23.490Z,40.22
2018-05-09T12:25:50.988Z,41.18
2018-05-09T12:28:18.524Z,40.48
2018-05-09T12:30:46.026Z,38.87
2018-05-09T12:33:13.568Z,38.35
2018-05-09T12:35:41.055Z,40.09
2018-05-09T12:38:08.573Z,39.88
2018-05-09T12:40:36.076Z,40.99
2018-05-09T12:43:03.591Z,39.98
2018-05-09T12:45:31.100Z,40.13
2018-05-09T12:47:58.606Z,40.08
2018-05-09T12:50:26.108Z,38.76
2018-05-09T12:52:53.595Z,40.44
2018-05-09T12:55:21.130Z,38.67
2018-05-09T12:57:49.248Z,39.95
2018-05-09T13:00:16.776Z,39.35
2018-05-09T13:02:44.324Z,38.87
2018-05-09T13:05:11.901Z,37.77
2018-05-09T13:07:39.396Z,37.81
2018-05-09T13:10:06.920Z,37.03
2018-05-09T13:12:34.443Z,37.50
2018-05-09T13:15:01.925Z,38.77
2018-05-09T13:17:29.456Z,39.21
2018-05-09T13:19:56.971Z,38.45
2018-05-09T13:22:24.493Z,37.77
2018-05-09T13:24:51.975Z,39.13
2018-05-09T13:27:19.501Z,40.18
2018-05-09T13:29:46.985Z,35.98
2018-05-09T13:32:15.209Z,36.37
2018-05-09T13:34:42.723Z,38.16
2018-05-09T13:37:10.272Z,37.54
2018-05-09T13:39:37.814Z,38.71
2018-05-09T13:42:05.282Z,38.20
2018-05-09T13:44:32.803Z,38.66
2018-05-09T13:47:00.289Z,36.91
2018-05-09T13:49:27.931Z,35.53
2018-05-09T13:51:55.444Z,36.10
2018-05-09T13:54:23.026Z,38.11
2018-05-09T13:56:51.303Z,38.32
2018-05-09T13:59:18.853Z,37.64
2018-05-09T14:01:46.363Z,38.90
2018-05-09T14:04:13.890Z,37.24
2018-05-09T14:06:41.412Z,36.87
2018-05-09T14:09:09.101Z,36.65
2018-05-09T14:11:36.594Z,36.84
2018-05-09T14:14:04.112Z,36.27
2018-05-09T14:16:31.603Z,34.01
2018-05-09T14:18:59.143Z,34.74
2018-05-09T14:21:26.667Z,34.24
2018-05-09T14:23:54.180Z,35.07
2018-05-09T14:26:21.728Z,36.37
2018-05-09T14:28:49.214Z,36.32
2018-05-09T14:31:16.735Z,37.09
2018-05-09T14:33:44.247Z,36.97
2018-05-09T14:36:11.752Z,36.94
2018-05-09T14:38:39.233Z,37.98
2018-05-09T14:41:06.805Z,37.63
2018-05-09T14:43:34.287Z,36.61
2018-05-09T14:46:02.918Z,35.37
2018-05-09T14:48:30.425Z,36.04
2018-05-09T14:50:57.928Z,35.05
2018-05-09T14:53:26.198Z,36.00
2018-05-09T14:55:53.717Z,37.23
2018-05-09T14:58:21.244Z,35.81
2018-05-09T15:00:48.847Z,36.14
2018-05-09T15:03:16.347Z,35.06
2018-05-09T15:05:43.840Z,36.24
2018-05-09T15:08:11.339Z,37.23
2018-05-09T15:10:38.865Z,36.14
2018-05-09T15:13:06.406Z,35.11
2018-05-09T15:15:33.912Z,35.31
2018-05-09T15:18:01.421Z,34.22
2018-05-09T15:20:28.900Z,32.62
2018-05-09T15:22:56.401Z,34.14
2018-05-09T15:25:23.946Z,34.84
2018-05-09T15:27:51.448Z,35.67
2018-05-09T15:30:18.956Z,34.37
2018-05-09T15:32:46.475Z,34.83
2018-05-09T15:35:14.050Z,34.04
2018-05-09T15:37:41.475Z,34.88
2018-05-09T15:40:09.021Z,33.44
2018-05-09T15:42:36.503Z,33.00
2018-05-09T15:45:04.022Z,34.37
2018-05-09T15:47:31.518Z,33.65
2018-05-09T15:49:59.657Z,35.51
2018-05-09T15:52:27.248Z,34.58
2018-05-09T15:54:54.765Z,33.77
2018-05-09T15:57:22.260Z,34.25
2018-05-09T15:59:49.762Z,33.81
2018-05-09T16:02:17.290Z,33.67
2018-05-09T16:04:44.797Z,34.22
2018-05-09T16:07:12.303Z,34.22
2018-05-09T16:09:39.903Z,33.23
2018-05-09T16:12:07.422Z,34.15
2018-05-09T16:14:34.941Z,34.05
2018-05-09T16:17:02.438Z,34.32
2018-05-09T16:19:30.010Z,34.34
2018-05-09T16:21:57.509Z,34.97
2018-05-09T16:24:25.056Z,36.50
2018-05-09T16:26:52.552Z,34.71
2018-05-09T16:29:20.097Z,34.45
2018-05-09T16:31:47.618Z,34.34
2018-05-09T16:34:15.161Z,34.45
2018-05-09T16:36:42.693Z,34.85
2018-05-09T16:39:10.207Z,35.36
2018-05-09T16:41:37.755Z,34.59
2018-05-09T16:44:05.322Z,33.95
2018-05-09T16:46:32.805Z,34.16
2018-05-09T16:49:00.326Z,34.36
2018-05-09T16:51:27.846Z,34.46
2018-05-09T16:53:55.427Z,34.68
2018-05-09T16:56:22.951Z,35.06
2018-05-09T16:58:50.435Z,33.83
2018-05-09T17:01:17.967Z,33.74
2018-05-09T17:03:45.485Z,34.68
2018-05-09T17:06:13.035Z,34.00
2018-05-09T17:08:40.560Z,33.81
2018-05-09T17:11:08.067Z,35.60
2018-05-09T17:13:35.593Z,34.37
2018-05-09T17:16:03.095Z,34.65
2018-05-09T17:18:30.608Z,34.18
2018-05-09T17:20:58.177Z,33.35
2018-05-09T17:23:25.820Z,33.57
2018-05-09T17:25:53.368Z,34.22
2018-05-09T17:28:20.949Z,33.44
2018-05-09T17:30:48.494Z,33.76
2018-05-09T17:33:16.039Z,34.10
2018-05-09T17:35:43.578Z,34.49
2018-05-09T17:38:11.131Z,34.75
2018-05-09T17:40:38.642Z,35.40
2018-05-09T17:43:06.168Z,33.94
2018-05-09T17:45:33.775Z,34.80
2018-05-09T17:48:01.305Z,35.27
2018-05-09T17:50:28.928Z,34.61
2018-05-09T17:52:56.486Z,34.10
2018-05-09T17:55:23.997Z,34.90
2018-05-09T17:57:51.522Z,35.29
2018-05-09T18:00:19.025Z,35.53
2018-05-09T18:02:46.526Z,36.11
2018-05-09T18:05:14.076Z,35.85
2018-05-09T18:07:41.587Z,37.10
2018-05-09T18:10:09.846Z,37.45
2018-05-09T18:12:37.360Z,37.42
2018-05-09T18:15:05.107Z,37.41
2018-05-09T18:17:32.653Z,36.76
2018-05-09T18:20:00.171Z,37.22
2018-05-09T18:22:27.685Z,38.19
2018-05-09T18:24:55.268Z,37.23
2018-05-09T18:27:22.773Z,37.36
2018-05-09T18:29:50.273Z,37.70
2018-05-09T18:32:17.829Z,37.72
2018-05-09T18:34:45.372Z,38.26
2018-05-09T18:37:12.880Z,38.23
2018-05-09T18:39:40.485Z,37.93
2018-05-09T18:42:08.000Z,38.50
2018-05-09T18:44:35.513Z,39.79
2018-05-09T18:47:03.018Z,38.92
2018-05-09T18:49:30.559Z,39.24
2018-05-09T18:51:58.033Z,40.21
2018-05-09T18:54:25.638Z,39.98
2018-05-09T18:56:53.114Z,40.12
2018-05-09T18:59:20.667Z,40.75
2018-05-09T19:01:48.181Z,41.37
2018-05-09T19:04:15.749Z,42.05
2018-05-09T19:06:43.297Z,41.01
2018-05-09T19:09:10.815Z,40.38
2018-05-09T19:11:38.562Z,40.58
2018-05-09T19:14:06.107Z,40.34
2018-05-09T19:16:33.660Z,41.02
2018-05-09T19:19:01.196Z,40.91
2018-05-09T19:21:29.486Z,41.14
2018-05-09T19:23:57.609Z,41.28
2018-05-09T19:26:25.133Z,41.00
2018-05-09T19:28:52.613Z,40.21
2018-05-09T19:31:20.157Z,41.42
2018-05-09T19:33:47.671Z,40.83
2018-05-09T19:36:15.173Z,41.34
2018-05-09T19:38:42.754Z,41.64
2018-05-09T19:41:10.422Z,41.66
2018-05-09T19:43:38.062Z,40.89
2018-05-09T19:46:05.572Z,41.80
2018-05-09T19:48:33.143Z,41.59
2018-05-09T19:51:00.635Z,42.32
2018-05-09T19:53:28.337Z,42.41
2018-05-09T19:55:55.860Z,42.62
2018-05-09T19:58:23.351Z,42.34
2018-05-09T20:00:50.991Z,42.29
2018-05-09T20:03:18.493Z,41.80
2018-05-09T20:05:46.604Z,41.67
2018-05-09T20:08:14.078Z,41.58
2018-05-09T20:10:41.576Z,42.17
2018-05-09T20:13:09.080Z,42.11
2018-05-09T20:15:51.284Z,42.68
2018-05-09T20:21:35.483Z,42.24
2018-05-09T20:24:02.960Z,42.76
2018-05-09T20:26:30.500Z,43.43
2018-05-09T20:29:02.018Z,44.12
2018-05-09T20:31:46.960Z,44.37
2018-05-09T20:34:14.452Z,43.78
2018-05-09T20:36:42.051Z,44.46
2018-05-09T20:39:09.545Z,44.00
2018-05-09T20:41:37.090Z,44.24
2018-05-09T20:44:04.653Z,44.83
2018-05-09T20:46:32.257Z,45.19
2018-05-09T20:48:59.804Z,45.90
2018-05-09T20:51:39.233Z,45.31
2018-05-09T20:54:07.036Z,45.64
2018-05-09T20:56:34.578Z,45.86
2018-05-09T20:59:02.197Z,45.62
2018-05-09T21:01:41.466Z,45.75
2018-05-09T21:04:09.581Z,46.41
2018-05-09T21:06:37.058Z,46.60
2018-05-09T21:09:05.432Z,46.77
2018-05-09T21:11:32.978Z,47.48
2018-05-09T21:14:00.501Z,47.08
2018-05-09T21:16:28.003Z,47.33
2018-05-09T21:18:55.553Z,47.37
2018-05-09T21:21:23.100Z,47.28
2018-05-09T21:23:50.644Z,47.22
2018-05-09T21:26:18.159Z,47.85
2018-05-09T21:28:45.791Z,48.12
2018-05-09T21:31:13.279Z,48.12
2018-05-09T21:33:40.775Z,48.42
2018-05-09T21:36:08.259Z,48.58
2018-05-09T21:38:35.774Z,48.08
2018-05-09T21:41:03.238Z,48.85
2018-05-09T21:43:30.759Z,48.56
2018-05-09T21:45:58.257Z,49.16
2018-05-09T21:48:25.741Z,49.12
2018-05-09T21:50:53.301Z,49.57
2018-05-09T21:53:20.783Z,49.26
2018-05-09T21:55:48.301Z,49.18
2018-05-09T21:58:15.778Z,49.40
2018-05-09T22:00:43.405Z,49.67
2018-05-09T22:03:10.886Z,49.57
2018-05-09T22:05:38.393Z,49.19
2018-05-09T22:08:05.923Z,50.04
2018-05-09T22:20:29.786Z,50.22
2018-05-09T22:22:57.304Z,50.59
2018-05-09T22:25:26.522Z,50.66
2018-05-09T22:27:54.227Z,51.13
2018-05-09T22:30:22.656Z,50.83
2018-05-09T22:32:55.435Z,50.94
2018-05-09T22:35:25.303Z,50.84
2018-05-09T22:37:55.171Z,51.16
2018-05-09T22:40:23.441Z,51.33
2018-05-09T22:42:51.059Z,52.10
2018-05-09T22:45:18.591Z,52.32
2018-05-09T22:47:46.157Z,52.59
2018-05-09T22:50:13.627Z,52.44
2018-05-09T22:52:41.112Z,51.57
2018-05-09T22:55:08.607Z,52.51
2018-05-09T22:57:36.138Z,52.09
2018-05-09T23:00:03.640Z,53.15
2018-05-09T23:02:31.110Z,53.59
2018-05-09T23:04:58.653Z,53.52
2018-05-09T23:07:26.108Z,54.99
2018-05-09T23:09:53.614Z,54.91
2018-05-09T23:12:21.106Z,55.31
2018-05-09T23:14:48.620Z,55.56
2018-05-09T23:17:16.091Z,56.38
2018-05-09T23:19:43.596Z,56.47
2018-05-09T23:22:11.117Z,55.82
2018-05-09T23:24:38.614Z,55.44
2018-05-09T23:27:06.113Z,55.33
2018-05-09T23:29:33.620Z,55.65
2018-05-09T23:32:01.121Z,55.89
2018-05-09T23:34:28.608Z,55.93
2018-05-09T23:36:56.112Z,56.25
2018-05-09T23:39:23.599Z,56.90
2018-05-09T23:41:51.114Z,57.28
2018-05-09T23:44:18.589Z,57.11
2018-05-09T23:46:46.097Z,57.49
2018-05-09T23:49:13.582Z,57.70
2018-05-09T23:51:41.094Z,57.65
2018-05-09T23:54:08.631Z,57.63
2018-05-09T23:56:36.127Z,57.33
2018-05-09T23:59:03.647Z,57.10
